Time;durP1;ratioP1;P1;durP2;ratioP2;P2;SDS_P1;SDS_P2;PMS_P1;PMS_P2;Temp;Humidity;BMP_temperature;BMP_pressure;BME280_temperature;BME280_humidity;BME280_pressure;Samples;Min_cycle;Max_cycle;Signal;HPM_P1;HPM_P2
2023/05/30 00:00:32;;;;;;;;;2.00;2.00;;;;;;;;4956257;28;45358;-67
2023/05/30 00:02:57;;;;;;;;;2.25;1.00;;;;;;;;4955069;28;45346;-66
2023/05/30 00:05:23;;;;;;;;;3.50;3.50;;;;;;;;4954509;28;45715;-66
2023/05/30 00:07:48;;;;;;;;;3.50;2.50;;;;;;;;4955619;28;45414;-70
2023/05/30 00:10:13;;;;;;;;;4.50;2.75;;;;;;;;4954369;28;45575;-67
2023/05/30 00:12:41;;;;;;;;;2.50;2.50;;;;;;;;4955738;28;45603;-67
2023/05/30 00:15:07;;;;;;;;;3.25;2.50;;;;;;;;4954219;28;47143;-68
2023/05/30 00:17:35;;;;;;;;;2.50;2.25;;;;;;;;4955347;28;45468;-68
2023/05/30 00:20:00;;;;;;;;;3.25;1.25;;;;;;;;4955198;28;45638;-67
2023/05/30 00:22:25;;;;;;;;;2.50;2.50;;;;;;;;4954196;28;45436;-68
2023/05/30 00:24:51;;;;;;;;;3.25;2.00;;;;;;;;4955401;28;45599;-68
2023/05/30 00:27:17;;;;;;;;;3.00;3.00;;;;;;;;4957057;28;45505;-68
2023/05/30 00:29:43;;;;;;;;;3.00;3.00;;;;;;;;4958624;28;45373;-67
2023/05/30 00:32:08;;;;;;;;;2.50;2.50;;;;;;;;4958893;28;45425;-67
2023/05/30 00:34:33;;;;;;;;;2.00;2.00;;;;;;;;4958648;28;45463;-68
2023/05/30 00:36:59;;;;;;;;;4.25;4.00;;;;;;;;4957691;28;46092;-67
2023/05/30 00:39:24;;;;;;;;;6.00;3.25;;;;;;;;4959099;28;45499;-68
2023/05/30 00:41:49;;;;;;;;;2.00;2.00;;;;;;;;4958418;28;45389;-67
2023/05/30 00:44:15;;;;;;;;;4.00;4.00;;;;;;;;4958567;28;47020;-68
2023/05/30 00:46:40;;;;;;;;;2.75;2.75;;;;;;;;4958735;28;45405;-68
2023/05/30 00:49:06;;;;;;;;;3.50;3.50;;;;;;;;4958859;28;45445;-68
2023/05/30 00:51:32;;;;;;;;;3.00;2.50;;;;;;;;4976655;28;45403;-68
2023/05/30 00:53:57;;;;;;;;;4.50;3.75;;;;;;;;4975046;28;46830;-68
2023/05/30 00:56:23;;;;;;;;;6.75;5.75;;;;;;;;4958722;28;45290;-68
2023/05/30 00:58:49;;;;;;;;;3.50;3.50;;;;;;;;4958829;28;45398;-68
2023/05/30 01:01:14;;;;;;;;;2.00;2.00;;;;;;;;4968479;28;45390;-68
2023/05/30 01:03:40;;;;;;;;;6.25;4.50;;;;;;;;4958105;28;45289;-68
2023/05/30 01:06:06;;;;;;;;;4.50;3.00;;;;;;;;4958253;28;45258;-68
2023/05/30 01:08:32;;;;;;;;;3.00;3.00;;;;;;;;4958776;28;45259;-68
2023/05/30 01:11:26;;;;;;;;;4.00;4.00;;;;;;;;4957391;28;45493;-67
2023/05/30 01:13:56;;;;;;;;;4.75;3.50;;;;;;;;4957076;28;45655;-68
2023/05/30 01:16:24;;;;;;;;;2.50;2.25;;;;;;;;4958165;28;45417;-68
2023/05/30 01:19:01;;;;;;;;;3.00;1.75;;;;;;;;4958081;28;45495;-68
2023/05/30 01:21:30;;;;;;;;;2.25;2.25;;;;;;;;4958065;28;45544;-66
2023/05/30 01:24:00;;;;;;;;;3.00;3.00;;;;;;;;4958026;28;45547;-67
2023/05/30 01:26:44;;;;;;;;;4.25;3.50;;;;;;;;4957727;28;45371;-67
2023/05/30 01:29:17;;;;;;;;;3.50;2.75;;;;;;;;4959034;28;45426;-66
2023/05/30 01:31:43;;;;;;;;;2.50;1.50;;;;;;;;4957710;28;45544;-66
2023/05/30 01:34:09;;;;;;;;;3.25;2.00;;;;;;;;4957516;28;45538;-66
2023/05/30 01:36:35;;;;;;;;;2.25;2.00;;;;;;;;4957524;28;45510;-66
2023/05/30 01:39:01;;;;;;;;;4.50;4.00;;;;;;;;4956510;28;45436;-66
2023/05/30 01:41:32;;;;;;;;;4.50;3.00;;;;;;;;4957556;28;45581;-67
2023/05/30 01:44:06;;;;;;;;;2.00;2.00;;;;;;;;4957412;28;46338;-67
2023/05/30 01:46:36;;;;;;;;;4.00;3.00;;;;;;;;4957415;28;45450;-67
2023/05/30 01:49:24;;;;;;;;;3.00;2.00;;;;;;;;4958600;28;45294;-66
2023/05/30 01:51:50;;;;;;;;;4.00;3.00;;;;;;;;4937695;28;45579;-66
2023/05/30 01:54:17;;;;;;;;;3.00;2.00;;;;;;;;4943176;28;45563;-68
2023/05/30 01:56:44;;;;;;;;;6.50;3.00;;;;;;;;4957731;28;45434;-68
2023/05/30 01:59:10;;;;;;;;;1.50;1.50;;;;;;;;4957555;28;45371;-68
2023/05/30 02:01:36;;;;;;;;;4.75;2.75;;;;;;;;4955062;28;45359;-68
2023/05/30 02:04:02;;;;;;;;;2.00;2.00;;;;;;;;4956442;28;47419;-67
2023/05/30 02:06:27;;;;;;;;;3.25;3.25;;;;;;;;4954904;28;45558;-67
2023/05/30 02:08:52;;;;;;;;;3.00;2.00;;;;;;;;4957126;28;45451;-67
2023/05/30 02:11:17;;;;;;;;;3.00;3.00;;;;;;;;4939548;28;45548;-67
2023/05/30 02:13:44;;;;;;;;;5.00;2.00;;;;;;;;4956645;28;46106;-67
2023/05/30 02:16:09;;;;;;;;;2.75;2.75;;;;;;;;4956936;28;45374;-67
2023/05/30 02:18:34;;;;;;;;;7.75;3.00;;;;;;;;4957338;28;45439;-68
2023/05/30 02:21:00;;;;;;;;;4.75;4.25;;;;;;;;4957666;28;45458;-67
2023/05/30 02:23:25;;;;;;;;;3.50;3.00;;;;;;;;4957164;28;45508;-67
2023/05/30 02:25:50;;;;;;;;;4.00;3.25;;;;;;;;4956347;28;45608;-67
2023/05/30 02:28:16;;;;;;;;;5.00;3.50;;;;;;;;4957211;28;45396;-67
2023/05/30 02:30:41;;;;;;;;;4.25;4.25;;;;;;;;4957179;28;45484;-67
2023/05/30 02:33:06;;;;;;;;;3.50;2.00;;;;;;;;4957121;28;45436;-67
2023/05/30 02:35:31;;;;;;;;;3.25;3.25;;;;;;;;4955681;28;45540;-67
2023/05/30 02:37:56;;;;;;;;;2.00;2.00;;;;;;;;4957267;28;45757;-67
2023/05/30 02:40:22;;;;;;;;;3.50;3.50;;;;;;;;4957201;28;45484;-67
2023/05/30 02:42:47;;;;;;;;;4.25;3.75;;;;;;;;4956809;28;45752;-67
2023/05/30 02:45:12;;;;;;;;;6.25;3.00;;;;;;;;4957029;28;45498;-67
2023/05/30 02:47:37;;;;;;;;;6.50;4.75;;;;;;;;4974045;28;45469;-67
2023/05/30 02:50:03;;;;;;;;;4.00;2.25;;;;;;;;4970276;28;45533;-67
2023/05/30 02:52:28;;;;;;;;;2.25;2.25;;;;;;;;4972262;28;45532;-68
2023/05/30 02:54:54;;;;;;;;;4.25;3.25;;;;;;;;4962438;28;45355;-67
2023/05/30 02:57:21;;;;;;;;;2.25;2.25;;;;;;;;4956969;28;45464;-69
2023/05/30 02:59:46;;;;;;;;;3.25;1.75;;;;;;;;4955527;28;45342;-68
2023/05/30 03:02:11;;;;;;;;;1.25;1.25;;;;;;;;4956396;28;46592;-67
2023/05/30 03:04:37;;;;;;;;;4.50;2.00;;;;;;;;4956809;28;45438;-68
2023/05/30 03:07:02;;;;;;;;;3.00;3.00;;;;;;;;4955607;28;45543;-68
2023/05/30 03:09:27;;;;;;;;;2.75;2.75;;;;;;;;4956899;28;45499;-68
2023/05/30 03:11:52;;;;;;;;;3.00;2.00;;;;;;;;4956381;28;47209;-68
2023/05/30 03:14:18;;;;;;;;;5.25;3.00;;;;;;;;4956432;28;45386;-68
2023/05/30 03:16:43;;;;;;;;;3.00;3.00;;;;;;;;4956497;28;45369;-67
2023/05/30 03:19:08;;;;;;;;;2.50;2.50;;;;;;;;4956219;28;45367;-68
2023/05/30 03:21:34;;;;;;;;;5.00;3.00;;;;;;;;4956246;28;45376;-68
2023/05/30 03:23:59;;;;;;;;;3.00;2.00;;;;;;;;4956142;28;45413;-67
2023/05/30 03:26:24;;;;;;;;;3.25;2.00;;;;;;;;4956143;28;45412;-68
2023/05/30 03:28:49;;;;;;;;;2.75;2.00;;;;;;;;4956220;28;45507;-66
2023/05/30 03:31:15;;;;;;;;;2.25;2.25;;;;;;;;4955818;28;45977;-67
2023/05/30 03:33:40;;;;;;;;;6.25;3.00;;;;;;;;4956183;28;45377;-66
2023/05/30 03:36:06;;;;;;;;;2.00;2.00;;;;;;;;4956415;28;45613;-67
2023/05/30 03:38:32;;;;;;;;;2.50;2.50;;;;;;;;4955842;28;45439;-68
2023/05/30 03:40:57;;;;;;;;;2.25;2.00;;;;;;;;4955634;28;46000;-67
2023/05/30 03:43:22;;;;;;;;;2.50;1.50;;;;;;;;4955713;28;45413;-68
2023/05/30 03:45:47;;;;;;;;;5.00;3.00;;;;;;;;4956317;28;45399;-67
2023/05/30 03:48:12;;;;;;;;;2.25;2.25;;;;;;;;4955096;28;45599;-67
2023/05/30 03:50:38;;;;;;;;;4.00;2.75;;;;;;;;4957076;28;45362;-67
2023/05/30 03:53:03;;;;;;;;;2.50;2.50;;;;;;;;4956234;28;45390;-67
2023/05/30 03:55:28;;;;;;;;;5.00;2.25;;;;;;;;4956128;28;45756;-68
2023/05/30 03:57:53;;;;;;;;;4.25;4.25;;;;;;;;4975805;28;45306;-68
2023/05/30 04:00:18;;;;;;;;;3.50;2.00;;;;;;;;4975531;28;46380;-68
2023/05/30 04:02:44;;;;;;;;;4.00;2.25;;;;;;;;4967000;28;45582;-68
2023/05/30 04:05:09;;;;;;;;;3.25;2.75;;;;;;;;4959731;28;45526;-68
2023/05/30 04:07:35;;;;;;;;;3.00;2.00;;;;;;;;4959504;28;45468;-67
2023/05/30 04:10:00;;;;;;;;;3.00;2.25;;;;;;;;4959119;28;46232;-67
2023/05/30 04:12:26;;;;;;;;;2.25;2.00;;;;;;;;4959492;28;45308;-67
2023/05/30 04:14:51;;;;;;;;;3.25;1.25;;;;;;;;4958740;28;45302;-67
2023/05/30 04:17:16;;;;;;;;;3.00;3.00;;;;;;;;4958985;28;45333;-67
2023/05/30 04:19:41;;;;;;;;;2.00;2.00;;;;;;;;4958917;28;47316;-67
2023/05/30 04:22:08;;;;;;;;;4.25;3.00;;;;;;;;4958759;28;45301;-67
2023/05/30 04:24:33;;;;;;;;;3.25;2.00;;;;;;;;4958853;28;45341;-68
2023/05/30 04:26:58;;;;;;;;;4.75;3.00;;;;;;;;4958457;28;45376;-67
2023/05/30 04:29:23;;;;;;;;;3.00;3.00;;;;;;;;4958677;28;46976;-69
2023/05/30 04:31:48;;;;;;;;;4.00;3.00;;;;;;;;4963262;28;45405;-68
2023/05/30 04:34:15;;;;;;;;;3.50;2.00;;;;;;;;4976071;28;45480;-68
2023/05/30 04:36:41;;;;;;;;;2.75;2.75;;;;;;;;4959198;28;45516;-68
2023/05/30 04:39:06;;;;;;;;;2.00;1.25;;;;;;;;4963416;28;47390;-68
2023/05/30 04:41:32;;;;;;;;;2.00;1.00;;;;;;;;4978265;28;45483;-68
2023/05/30 04:43:57;;;;;;;;;3.00;2.25;;;;;;;;4978673;28;45480;-68
2023/05/30 04:46:27;;;;;;;;;0.75;0.50;;;;;;;;4970031;28;45538;-68
2023/05/30 04:48:55;;;;;;;;;1.25;1.00;;;;;;;;4973629;28;46154;-68
2023/05/30 04:51:20;;;;;;;;;5.00;2.50;;;;;;;;4961771;28;45645;-69
2023/05/30 04:53:46;;;;;;;;;1.75;1.75;;;;;;;;4957513;28;45337;-68
2023/05/30 04:56:11;;;;;;;;;3.25;2.25;;;;;;;;4958940;28;45349;-68
2023/05/30 04:58:36;;;;;;;;;2.50;2.50;;;;;;;;4957122;28;47750;-68
2023/05/30 05:01:02;;;;;;;;;5.00;3.00;;;;;;;;4958648;28;45414;-69
2023/05/30 05:03:27;;;;;;;;;3.00;3.00;;;;;;;;4958576;28;45366;-68
2023/05/30 05:05:52;;;;;;;;;3.50;3.00;;;;;;;;4974748;28;45298;-68
2023/05/30 05:08:18;;;;;;;;;2.50;2.00;;;;;;;;4977658;28;46328;-68
2023/05/30 05:10:43;;;;;;;;;2.50;2.00;;;;;;;;4966649;28;45704;-68
2023/05/30 05:13:08;;;;;;;;;2.75;2.75;;;;;;;;4958377;28;45365;-67
2023/05/30 05:15:33;;;;;;;;;2.75;2.75;;;;;;;;4958321;28;45565;-68
2023/05/30 05:17:58;;;;;;;;;2.75;1.75;;;;;;;;4958209;28;45362;-67
2023/05/30 05:20:24;;;;;;;;;2.00;2.00;;;;;;;;4951989;28;45323;-68
2023/05/30 05:22:49;;;;;;;;;3.00;0.75;;;;;;;;4948593;28;45373;-66
2023/05/30 05:25:15;;;;;;;;;3.00;2.75;;;;;;;;4947548;28;45315;-67
2023/05/30 05:27:40;;;;;;;;;2.25;2.25;;;;;;;;4950070;28;46236;-66
2023/05/30 05:30:06;;;;;;;;;4.00;3.50;;;;;;;;4941796;28;45327;-71
2023/05/30 05:32:36;;;;;;;;;3.25;3.00;;;;;;;;4949475;28;45310;-71
2023/05/30 05:35:02;;;;;;;;;3.00;1.00;;;;;;;;4957509;28;45357;-70
2023/05/30 05:37:27;;;;;;;;;3.50;2.25;;;;;;;;4957246;28;45575;-69
2023/05/30 05:39:52;;;;;;;;;2.75;1.50;;;;;;;;4957561;28;45446;-68
2023/05/30 05:42:17;;;;;;;;;5.00;2.50;;;;;;;;4950466;28;47436;-68
2023/05/30 05:44:43;;;;;;;;;2.75;2.75;;;;;;;;4938611;28;45446;-68
2023/05/30 05:47:08;;;;;;;;;2.00;2.00;;;;;;;;4951465;28;45441;-67
2023/05/30 05:49:33;;;;;;;;;2.00;1.75;;;;;;;;4958111;28;46291;-67
2023/05/30 05:51:58;;;;;;;;;5.50;4.00;;;;;;;;4957518;28;45457;-67
2023/05/30 05:54:23;;;;;;;;;1.75;1.75;;;;;;;;4958078;28;45370;-67
2023/05/30 05:56:48;;;;;;;;;3.50;2.75;;;;;;;;4955958;28;45654;-67
2023/05/30 05:59:15;;;;;;;;;3.25;2.25;;;;;;;;4956858;28;45371;-68
2023/05/30 06:01:42;;;;;;;;;1.50;1.50;;;;;;;;4957801;28;45405;-68
2023/05/30 06:04:11;;;;;;;;;4.00;3.00;;;;;;;;4958445;28;45577;-68
2023/05/30 06:06:36;;;;;;;;;1.50;1.50;;;;;;;;4976841;28;47106;-67
2023/05/30 06:09:01;;;;;;;;;3.50;3.00;;;;;;;;4976945;28;45434;-67
2023/05/30 06:11:26;;;;;;;;;3.00;3.00;;;;;;;;4961219;28;45456;-67
2023/05/30 06:13:52;;;;;;;;;4.25;2.50;;;;;;;;4957706;28;45431;-67
2023/05/30 06:16:17;;;;;;;;;3.75;3.00;;;;;;;;4957072;28;46493;-68
2023/05/30 06:18:42;;;;;;;;;3.00;1.00;;;;;;;;4957542;28;45423;-67
2023/05/30 06:21:10;;;;;;;;;4.50;3.00;;;;;;;;4957308;28;45330;-68
2023/05/30 06:23:35;;;;;;;;;3.00;3.00;;;;;;;;4957066;28;45381;-67
2023/05/30 06:26:00;;;;;;;;;4.25;1.00;;;;;;;;4956766;28;46151;-67
2023/05/30 06:28:25;;;;;;;;;3.50;2.75;;;;;;;;4956611;28;45451;-68
2023/05/30 06:30:50;;;;;;;;;4.00;2.00;;;;;;;;4957274;28;45410;-67
2023/05/30 06:33:16;;;;;;;;;5.00;3.00;;;;;;;;4957481;28;45328;-67
2023/05/30 06:35:41;;;;;;;;;3.50;3.00;;;;;;;;4955234;28;45365;-67
2023/05/30 06:38:06;;;;;;;;;3.00;2.00;;;;;;;;4957031;28;45302;-64
2023/05/30 06:40:31;;;;;;;;;1.00;1.00;;;;;;;;4956911;28;45439;-67
2023/05/30 06:42:57;;;;;;;;;4.75;2.25;;;;;;;;4969731;28;45296;-67
2023/05/30 06:45:22;;;;;;;;;3.00;2.00;;;;;;;;4976362;28;46916;-68
2023/05/30 06:47:47;;;;;;;;;2.75;2.75;;;;;;;;4956998;28;45625;-67
2023/05/30 06:50:12;;;;;;;;;2.75;2.00;;;;;;;;4955460;28;45240;-68
2023/05/30 06:52:37;;;;;;;;;2.00;2.00;;;;;;;;4957420;28;45502;-69
2023/05/30 06:55:03;;;;;;;;;2.75;2.00;;;;;;;;4956849;28;45423;-69
2023/05/30 06:57:28;;;;;;;;;4.75;2.00;;;;;;;;4943890;28;45894;-69
2023/05/30 06:59:53;;;;;;;;;2.00;2.00;;;;;;;;4942187;28;45473;-68
2023/05/30 07:02:18;;;;;;;;;2.75;1.50;;;;;;;;4943279;28;45590;-69
2023/05/30 07:04:44;;;;;;;;;3.00;3.00;;;;;;;;4944474;28;46313;-69
2023/05/30 07:07:09;;;;;;;;;3.00;3.00;;;;;;;;4937360;28;45674;-69
2023/05/30 07:09:34;;;;;;;;;4.00;3.50;;;;;;;;4943809;28;46018;-68
2023/05/30 07:12:00;;;;;;;;;2.00;2.00;;;;;;;;4940990;28;46069;-69
2023/05/30 07:14:25;;;;;;;;;2.00;1.75;;;;;;;;4956031;28;45608;-69
2023/05/30 07:16:51;;;;;;;;;4.00;2.50;;;;;;;;4956252;28;45709;-68
2023/05/30 07:19:16;;;;;;;;;1.50;1.50;;;;;;;;4954985;28;45769;-69
2023/05/30 07:21:41;;;;;;;;;4.00;3.50;;;;;;;;4955066;28;45512;-68
2023/05/30 07:24:06;;;;;;;;;3.75;1.75;;;;;;;;4954907;28;45723;-68
2023/05/30 07:26:32;;;;;;;;;4.00;2.50;;;;;;;;4941755;28;45394;-68
2023/05/30 07:28:57;;;;;;;;;4.25;1.00;;;;;;;;4937238;28;45393;-68
2023/05/30 07:31:23;;;;;;;;;2.75;2.75;;;;;;;;4944295;28;45666;-68
2023/05/30 07:33:48;;;;;;;;;3.00;3.00;;;;;;;;4955735;28;45509;-68
2023/05/30 07:36:13;;;;;;;;;2.25;2.25;;;;;;;;4953943;28;45410;-68
2023/05/30 07:38:38;;;;;;;;;2.00;2.00;;;;;;;;4956593;28;45446;-69
2023/05/30 07:41:03;;;;;;;;;4.00;3.00;;;;;;;;4956071;28;46196;-68
2023/05/30 07:43:29;;;;;;;;;2.00;2.00;;;;;;;;4955942;28;47100;-68
2023/05/30 07:45:54;;;;;;;;;1.75;1.75;;;;;;;;4955941;28;45366;-68
2023/05/30 07:48:19;;;;;;;;;3.75;2.25;;;;;;;;4956015;28;45500;-69
2023/05/30 07:50:44;;;;;;;;;4.50;2.75;;;;;;;;4954757;28;45371;-68
2023/05/30 07:53:10;;;;;;;;;3.50;2.50;;;;;;;;4954918;28;46328;-72
2023/05/30 07:55:35;;;;;;;;;3.00;3.00;;;;;;;;4957357;28;45501;-72
2023/05/30 07:58:00;;;;;;;;;4.50;2.50;;;;;;;;4970765;28;45298;-71
2023/05/30 08:00:25;;;;;;;;;0.00;0.00;;;;;;;;4956113;28;45371;-71
2023/05/30 08:02:50;;;;;;;;;2.25;2.25;;;;;;;;4954387;28;47690;-72
2023/05/30 08:05:16;;;;;;;;;2.50;1.75;;;;;;;;4965831;28;45409;-72
2023/05/30 08:07:41;;;;;;;;;5.50;3.50;;;;;;;;4974017;28;45440;-72
2023/05/30 08:10:06;;;;;;;;;2.50;2.50;;;;;;;;4975295;28;45381;-73
2023/05/30 08:12:32;;;;;;;;;2.75;2.75;;;;;;;;4973859;28;48194;-71
2023/05/30 08:14:57;;;;;;;;;3.75;3.00;;;;;;;;4975634;28;45370;-72
2023/05/30 08:17:27;;;;;;;;;3.00;2.00;;;;;;;;4975099;28;45349;-72
2023/05/30 08:19:53;;;;;;;;;4.00;2.00;;;;;;;;4936673;28;45298;-72
2023/05/30 08:22:22;;;;;;;;;1.50;1.50;;;;;;;;4936292;28;45429;-72
2023/05/30 08:24:50;;;;;;;;;2.50;2.50;;;;;;;;4936366;28;45390;-72
2023/05/30 08:27:16;;;;;;;;;4.50;3.00;;;;;;;;4936389;28;45410;-72
2023/05/30 08:29:42;;;;;;;;;2.00;2.00;;;;;;;;4938507;28;45437;-73
2023/05/30 08:32:07;;;;;;;;;5.00;4.00;;;;;;;;4955201;28;47257;-73
2023/05/30 08:34:32;;;;;;;;;2.25;2.25;;;;;;;;4955701;28;45472;-73
2023/05/30 08:36:58;;;;;;;;;0.25;0.25;;;;;;;;4955695;28;45523;-72
2023/05/30 08:39:23;;;;;;;;;3.25;2.75;;;;;;;;4955457;28;45519;-72
2023/05/30 08:41:48;;;;;;;;;2.50;1.25;;;;;;;;4958104;28;45643;-73
2023/05/30 08:44:13;;;;;;;;;3.75;3.25;;;;;;;;4974888;28;45353;-72
2023/05/30 08:46:43;;;;;;;;;3.00;3.00;;;;;;;;4974927;28;45331;-73
2023/05/30 08:49:11;;;;;;;;;3.25;2.50;;;;;;;;4978436;28;45624;-72
2023/05/30 08:51:37;;;;;;;;;1.75;1.00;;;;;;;;4976602;28;47179;-73
2023/05/30 08:54:04;;;;;;;;;0.25;0.25;;;;;;;;4958398;28;45491;-73
2023/05/30 08:56:33;;;;;;;;;2.50;1.75;;;;;;;;4958900;28;45389;-72
2023/05/30 08:59:00;;;;;;;;;1.25;1.25;;;;;;;;4958751;28;45342;-72
2023/05/30 09:01:25;;;;;;;;;3.00;2.75;;;;;;;;4958280;28;46348;-72
2023/05/30 09:03:51;;;;;;;;;3.25;1.75;;;;;;;;4957157;28;45476;-72
2023/05/30 09:06:17;;;;;;;;;2.25;1.25;;;;;;;;4976799;28;45396;-72
2023/05/30 09:08:45;;;;;;;;;2.00;1.25;;;;;;;;4978405;28;45389;-73
2023/05/30 09:11:11;;;;;;;;;2.75;1.75;;;;;;;;4961063;28;46410;-72
2023/05/30 09:13:36;;;;;;;;;2.00;1.75;;;;;;;;4958450;28;45439;-73
2023/05/30 09:16:01;;;;;;;;;0.75;0.75;;;;;;;;4960669;28;45461;-73
2023/05/30 09:18:31;;;;;;;;;2.00;1.00;;;;;;;;4978084;28;45433;-73
2023/05/30 09:20:56;;;;;;;;;2.50;2.50;;;;;;;;4977941;28;45692;-73
2023/05/30 09:23:21;;;;;;;;;2.75;2.00;;;;;;;;4961555;28;45414;-73
2023/05/30 09:25:48;;;;;;;;;2.25;2.25;;;;;;;;4958454;28;45274;-73
2023/05/30 09:28:13;;;;;;;;;1.25;1.25;;;;;;;;4958149;28;45340;-73
2023/05/30 09:30:57;;;;;;;;;2.75;2.00;;;;;;;;4957461;28;45453;-73
2023/05/30 09:33:23;;;;;;;;;1.25;1.00;;;;;;;;4958335;28;45510;-73
2023/05/30 09:35:52;;;;;;;;;0.00;0.00;;;;;;;;4958223;28;45329;-74
2023/05/30 09:38:20;;;;;;;;;2.00;2.00;;;;;;;;4957866;28;45302;-72
2023/05/30 09:40:48;;;;;;;;;3.75;1.75;;;;;;;;4957640;28;46404;-73
2023/05/30 09:43:13;;;;;;;;;2.75;2.75;;;;;;;;4958044;28;45409;-73
2023/05/30 09:45:38;;;;;;;;;2.00;2.00;;;;;;;;4956408;28;45897;-73
2023/05/30 09:48:04;;;;;;;;;0.50;0.50;;;;;;;;4958022;28;45510;-73
2023/05/30 09:50:29;;;;;;;;;3.25;2.00;;;;;;;;4957788;28;45585;-73
2023/05/30 09:52:56;;;;;;;;;2.00;1.00;;;;;;;;4958047;28;45446;-73
2023/05/30 09:55:23;;;;;;;;;1.75;1.00;;;;;;;;4957783;28;45366;-72
2023/05/30 09:57:49;;;;;;;;;1.75;1.00;;;;;;;;4957693;28;45353;-73
2023/05/30 10:00:32;;;;;;;;;2.25;1.00;;;;;;;;4956715;28;45587;-72
2023/05/30 10:02:58;;;;;;;;;2.25;2.25;;;;;;;;4957457;28;45492;-73
2023/05/30 10:05:24;;;;;;;;;4.00;1.75;;;;;;;;4968989;28;45342;-73
2023/05/30 10:07:51;;;;;;;;;4.00;3.00;;;;;;;;4977310;28;45324;-73
2023/05/30 10:10:16;;;;;;;;;2.00;1.00;;;;;;;;4977131;28;46481;-73
2023/05/30 10:12:42;;;;;;;;;2.50;1.00;;;;;;;;4963707;28;45385;-74
2023/05/30 10:15:09;;;;;;;;;3.00;1.50;;;;;;;;4957316;28;45413;-73
2023/05/30 10:17:35;;;;;;;;;3.00;2.00;;;;;;;;4955401;28;45644;-73
2023/05/30 10:20:02;;;;;;;;;3.75;2.00;;;;;;;;4955095;28;47624;-73
2023/05/30 10:22:28;;;;;;;;;3.75;2.25;;;;;;;;4955290;28;45482;-73
2023/05/30 10:24:55;;;;;;;;;3.00;2.00;;;;;;;;4956596;28;45559;-73
2023/05/30 10:27:41;;;;;;;;;0.50;0.50;;;;;;;;4957060;28;45437;-73
2023/05/30 10:30:11;;;;;;;;;1.25;1.25;;;;;;;;4955072;28;47470;-73
2023/05/30 10:32:38;;;;;;;;;2.00;2.00;;;;;;;;4956289;28;45426;-73
2023/05/30 10:35:11;;;;;;;;;3.50;1.50;;;;;;;;4954589;28;45441;-73
2023/05/30 10:37:37;;;;;;;;;4.75;2.25;;;;;;;;4956644;28;45646;-73
2023/05/30 10:40:21;;;;;;;;;2.25;2.25;;;;;;;;4953738;28;46051;-72
2023/05/30 10:42:46;;;;;;;;;2.75;1.25;;;;;;;;4956621;28;45371;-72
2023/05/30 10:45:20;;;;;;;;;1.80;1.80;;;;;;;;4957319;28;45323;-72
2023/05/30 10:47:51;;;;;;;;;0.75;0.75;;;;;;;;4956668;28;45393;-74
2023/05/30 10:50:22;;;;;;;;;2.25;2.25;;;;;;;;4956873;28;46393;-74
2023/05/30 10:52:47;;;;;;;;;2.25;2.25;;;;;;;;4957151;28;45361;-73
2023/05/30 10:55:13;;;;;;;;;3.25;2.00;;;;;;;;4957158;28;45330;-72
2023/05/30 10:57:40;;;;;;;;;1.25;1.25;;;;;;;;4956853;28;45536;-72
2023/05/30 11:00:22;;;;;;;;;3.00;2.00;;;;;;;;4956758;28;45465;-72
2023/05/30 11:02:52;;;;;;;;;1.25;1.25;;;;;;;;4955744;28;45377;-72
2023/05/30 11:05:19;;;;;;;;;1.00;1.00;;;;;;;;4955651;28;45412;-73
2023/05/30 11:07:44;;;;;;;;;4.50;3.50;;;;;;;;4974327;28;45369;-73
2023/05/30 11:10:11;;;;;;;;;2.75;1.25;;;;;;;;4974766;28;45552;-73
2023/05/30 11:12:45;;;;;;;;;1.00;1.00;;;;;;;;4975446;28;45429;-72
2023/05/30 11:15:17;;;;;;;;;2.50;2.50;;;;;;;;4961823;28;45495;-70
2023/05/30 11:17:42;;;;;;;;;3.00;1.00;;;;;;;;4954157;28;45682;-72
2023/05/30 11:20:09;;;;;;;;;2.00;2.00;;;;;;;;4956478;28;45561;-72
2023/05/30 11:22:36;;;;;;;;;2.00;2.00;;;;;;;;4956537;28;45389;-72
2023/05/30 11:25:17;;;;;;;;;3.00;3.00;;;;;;;;4956169;28;45524;-73
2023/05/30 11:28:01;;;;;;;;;1.75;1.75;;;;;;;;4956344;28;45526;-72
2023/05/30 11:30:26;;;;;;;;;3.00;1.00;;;;;;;;4956185;28;46221;-72
2023/05/30 11:32:53;;;;;;;;;2.00;1.00;;;;;;;;4956218;28;45405;-72
2023/05/30 11:35:18;;;;;;;;;1.00;1.00;;;;;;;;4956615;28;45401;-71
2023/05/30 11:37:45;;;;;;;;;1.75;1.00;;;;;;;;4938792;28;45921;-72
2023/05/30 11:40:13;;;;;;;;;1.50;1.00;;;;;;;;4956130;28;46890;-72
2023/05/30 11:42:38;;;;;;;;;3.00;2.00;;;;;;;;4956627;28;45441;-72
2023/05/30 11:45:03;;;;;;;;;3.25;1.25;;;;;;;;4966562;28;45392;-72
2023/05/30 11:47:29;;;;;;;;;1.25;1.25;;;;;;;;4975691;28;45377;-72
2023/05/30 11:49:57;;;;;;;;;1.00;1.00;;;;;;;;4975809;28;46460;-72
2023/05/30 11:52:22;;;;;;;;;2.50;1.00;;;;;;;;4976017;28;45352;-72
2023/05/30 11:54:47;;;;;;;;;1.25;1.00;;;;;;;;4962679;28;45361;-72
2023/05/30 11:57:16;;;;;;;;;1.00;1.00;;;;;;;;4956140;28;45552;-72
2023/05/30 11:59:42;;;;;;;;;2.75;2.00;;;;;;;;4955782;28;45631;-72
2023/05/30 12:02:07;;;;;;;;;1.00;1.00;;;;;;;;4956007;28;45330;-72
2023/05/30 12:04:33;;;;;;;;;1.00;1.00;;;;;;;;4960358;28;45397;-71
2023/05/30 12:07:02;;;;;;;;;2.25;1.00;;;;;;;;4962538;28;45467;-71
2023/05/30 12:09:28;;;;;;;;;3.00;3.00;;;;;;;;4955480;28;46549;-72
2023/05/30 12:11:59;;;;;;;;;2.00;2.00;;;;;;;;4955850;28;45475;-74
2023/05/30 12:14:28;;;;;;;;;2.00;2.00;;;;;;;;4955975;28;45472;-73
2023/05/30 12:16:54;;;;;;;;;3.00;3.00;;;;;;;;4966316;28;45321;-74
2023/05/30 12:19:19;;;;;;;;;2.00;2.00;;;;;;;;4959415;28;46423;-72
2023/05/30 12:21:45;;;;;;;;;1.00;1.00;;;;;;;;4955675;28;45311;-72
2023/05/30 12:24:11;;;;;;;;;2.75;2.00;;;;;;;;4959107;28;45362;-73
2023/05/30 12:26:36;;;;;;;;;3.50;2.25;;;;;;;;4959445;28;45490;-73
2023/05/30 12:29:08;;;;;;;;;1.00;1.00;;;;;;;;4958599;28;45285;-72
2023/05/30 12:31:33;;;;;;;;;3.25;1.00;;;;;;;;4958702;28;45390;-72
2023/05/30 12:33:59;;;;;;;;;5.00;1.25;;;;;;;;4959117;28;45357;-72
2023/05/30 12:36:25;;;;;;;;;2.75;2.75;;;;;;;;4958938;28;45525;-73
2023/05/30 12:38:53;;;;;;;;;1.75;1.75;;;;;;;;4958845;28;47038;-70
2023/05/30 12:41:26;;;;;;;;;3.50;2.50;;;;;;;;4959115;28;45534;-74
2023/05/30 12:43:51;;;;;;;;;1.00;1.00;;;;;;;;4939369;28;45420;-73
2023/05/30 12:46:17;;;;;;;;;3.50;2.25;;;;;;;;4939488;28;45235;-72
2023/05/30 12:48:42;;;;;;;;;2.25;1.00;;;;;;;;4939155;28;45553;-73
2023/05/30 12:51:08;;;;;;;;;5.00;2.00;;;;;;;;4939462;28;45479;-74
2023/05/30 12:53:33;;;;;;;;;1.75;1.50;;;;;;;;4939097;28;45398;-74
2023/05/30 12:55:58;;;;;;;;;4.50;2.25;;;;;;;;4958552;28;45422;-71
2023/05/30 12:58:24;;;;;;;;;1.25;1.25;;;;;;;;4958604;28;46174;-73
2023/05/30 13:00:49;;;;;;;;;2.50;1.25;;;;;;;;4958528;28;45393;-73
2023/05/30 13:03:14;;;;;;;;;0.25;0.25;;;;;;;;4958860;28;45886;-73
2023/05/30 13:05:41;;;;;;;;;1.25;1.25;;;;;;;;4969401;28;45513;-73
2023/05/30 13:08:06;;;;;;;;;3.75;2.75;;;;;;;;4958192;28;46153;-74
2023/05/30 13:10:32;;;;;;;;;2.25;1.25;;;;;;;;4958562;28;45516;-73
2023/05/30 13:12:57;;;;;;;;;2.00;2.00;;;;;;;;4958585;28;45458;-73
2023/05/30 13:15:23;;;;;;;;;3.00;2.00;;;;;;;;4958606;28;45469;-73
2023/05/30 13:17:48;;;;;;;;;2.25;1.50;;;;;;;;4956978;28;46315;-74
2023/05/30 13:20:13;;;;;;;;;3.00;2.25;;;;;;;;4958029;28;45389;-73
2023/05/30 13:22:38;;;;;;;;;4.50;3.00;;;;;;;;4958140;28;45597;-75
2023/05/30 13:25:04;;;;;;;;;2.75;2.75;;;;;;;;4958390;28;45436;-74
2023/05/30 13:27:29;;;;;;;;;1.50;1.00;;;;;;;;4958271;28;47026;-74
2023/05/30 13:29:54;;;;;;;;;1.00;1.00;;;;;;;;4958030;28;45366;-74
2023/05/30 13:32:20;;;;;;;;;3.00;1.00;;;;;;;;4958255;28;45413;-74
2023/05/30 13:34:45;;;;;;;;;3.75;1.00;;;;;;;;4956994;28;45348;-74
2023/05/30 13:37:10;;;;;;;;;1.75;1.00;;;;;;;;4956423;28;47378;-73
2023/05/30 13:39:37;;;;;;;;;2.00;2.00;;;;;;;;4958098;28;45410;-73
2023/05/30 13:42:02;;;;;;;;;1.75;1.75;;;;;;;;4957991;28;45351;-74
2023/05/30 13:44:28;;;;;;;;;2.25;1.00;;;;;;;;4958182;28;45207;-73
2023/05/30 13:46:53;;;;;;;;;2.00;2.00;;;;;;;;4956575;28;47782;-73
2023/05/30 13:49:21;;;;;;;;;3.00;3.00;;;;;;;;4956924;28;45376;-72
2023/05/30 13:51:47;;;;;;;;;2.00;1.00;;;;;;;;4938717;28;45466;-72
2023/05/30 13:54:12;;;;;;;;;2.50;1.00;;;;;;;;4938415;28;45359;-72
2023/05/30 13:56:37;;;;;;;;;1.00;1.00;;;;;;;;4938295;28;45410;-73
2023/05/30 13:59:02;;;;;;;;;1.50;1.25;;;;;;;;4938089;28;45507;-73
2023/05/30 14:01:30;;;;;;;;;0.25;0.25;;;;;;;;4939646;28;45371;-72
2023/05/30 14:03:56;;;;;;;;;1.75;1.00;;;;;;;;4957719;28;45400;-73
2023/05/30 14:06:22;;;;;;;;;3.75;2.00;;;;;;;;4975903;28;47159;-72
2023/05/30 14:08:47;;;;;;;;;1.00;1.00;;;;;;;;4977160;28;45337;-72
2023/05/30 14:11:13;;;;;;;;;0.00;0.00;;;;;;;;4977287;28;45342;-73
2023/05/30 14:13:39;;;;;;;;;1.25;1.25;;;;;;;;4958811;28;45393;-74
2023/05/30 14:16:05;;;;;;;;;3.50;1.75;;;;;;;;4957389;28;46370;-73
2023/05/30 14:18:30;;;;;;;;;2.00;1.00;;;;;;;;4957335;28;45484;-73
2023/05/30 14:20:55;;;;;;;;;1.00;1.00;;;;;;;;4956150;28;45605;-72
2023/05/30 14:23:21;;;;;;;;;1.50;1.25;;;;;;;;4957456;28;45453;-72
2023/05/30 14:25:46;;;;;;;;;3.50;1.75;;;;;;;;4956899;28;47385;-72
2023/05/30 14:28:11;;;;;;;;;1.75;1.00;;;;;;;;4957143;28;45854;-73
2023/05/30 14:30:37;;;;;;;;;1.25;1.00;;;;;;;;4957225;28;45405;-74
2023/05/30 14:33:02;;;;;;;;;1.25;1.25;;;;;;;;4957602;28;45509;-73
2023/05/30 14:35:28;;;;;;;;;1.25;1.25;;;;;;;;4956894;28;46134;-73
2023/05/30 14:37:53;;;;;;;;;1.50;1.50;;;;;;;;4957488;28;45556;-73